createdAt,value
2022-11-15T00:01:18.161Z,100600.41
2022-11-15T00:04:04.196Z,100597.00
2022-11-15T00:06:49.959Z,100605.34
2022-11-15T00:09:35.644Z,100596.72
2022-11-15T00:12:20.850Z,100597.63
2022-11-15T00:15:07.065Z,100592.38
2022-11-15T00:17:52.433Z,100594.06
2022-11-15T00:20:38.298Z,100597.91
2022-11-15T00:23:24.010Z,100569.03
2022-11-15T00:26:14.021Z,100582.28
2022-11-15T00:28:59.823Z,100579.69
2022-11-15T00:31:45.435Z,100575.94
2022-11-15T00:34:30.804Z,100578.47
2022-11-15T00:37:16.590Z,100576.63
2022-11-15T00:40:02.221Z,100568.28
2022-11-15T00:42:47.939Z,100575.13
2022-11-15T00:45:33.221Z,100563.94
2022-11-15T00:48:18.491Z,100569.03
2022-11-15T00:51:04.271Z,100556.91
2022-11-15T00:53:49.684Z,100563.34
2022-11-15T00:56:35.355Z,100561.31
2022-11-15T00:59:21.116Z,100546.25
2022-11-15T01:02:06.440Z,100555.31
2022-11-15T01:04:52.087Z,100552.66
2022-11-15T01:07:37.540Z,100550.16
2022-11-15T01:10:24.043Z,100541.94
2022-11-15T01:13:09.771Z,100544.59
2022-11-15T01:15:55.400Z,100545.63
2022-11-15T01:18:42.106Z,100520.13
2022-11-15T01:21:28.100Z,100541.72
2022-11-15T01:24:14.322Z,100521.66
2022-11-15T01:26:59.883Z,100537.63
2022-11-15T01:29:45.252Z,100530.78
2022-11-15T01:32:31.095Z,100521.31
2022-11-15T01:35:16.836Z,100522.00
2022-11-15T01:38:02.312Z,100519.09
2022-11-15T01:40:48.279Z,100518.94
2022-11-15T01:43:36.500Z,100524.84
2022-11-15T01:46:36.356Z,100533.56
2022-11-15T01:49:23.840Z,100530.44
2022-11-15T01:52:15.034Z,100527.03
2022-11-15T01:55:06.666Z,100525.41
2022-11-15T01:57:56.586Z,100520.94
2022-11-15T02:00:42.759Z,100519.28
2022-11-15T02:03:36.679Z,100510.69
2022-11-15T02:06:23.446Z,100524.09
2022-11-15T02:09:08.942Z,100524.84
2022-11-15T02:11:56.359Z,100528.69
2022-11-15T02:14:45.633Z,100521.59
2022-11-15T02:18:03.609Z,100519.50
2022-11-15T02:21:04.134Z,100517.69
2022-11-15T02:24:03.321Z,100509.31
2022-11-15T02:27:03.819Z,100496.50
2022-11-15T02:30:19.847Z,100507.50
2022-11-15T02:33:11.934Z,100503.91
2022-11-15T02:36:18.934Z,100503.91
2022-11-15T02:39:09.659Z,100505.72
2022-11-15T02:42:05.223Z,100510.00
2022-11-15T02:44:51.849Z,100503.22
2022-11-15T02:47:44.162Z,100505.66
2022-11-15T02:50:31.342Z,100494.94
2022-11-15T02:53:16.877Z,100493.44
2022-11-15T02:56:02.652Z,100495.81
2022-11-15T02:59:19.731Z,100489.91
2022-11-15T03:02:15.963Z,100483.34
2022-11-15T03:05:16.811Z,100467.97
2022-11-15T03:08:09.388Z,100483.38
2022-11-15T03:11:11.073Z,100486.47
2022-11-15T03:14:01.595Z,100485.63
2022-11-15T03:16:58.354Z,100482.00
2022-11-15T03:19:49.470Z,100459.88
2022-11-15T03:22:39.528Z,100454.44
2022-11-15T03:25:28.069Z,100458.69
2022-11-15T03:28:48.228Z,100453.31
2022-11-15T03:31:50.908Z,100461.06
2022-11-15T03:34:45.699Z,100467.91
2022-11-15T03:37:39.095Z,100463.22
2022-11-15T03:40:32.217Z,100464.28
2022-11-15T03:43:48.351Z,100465.69
2022-11-15T03:46:55.095Z,100450.50
2022-11-15T03:49:47.046Z,100467.66
2022-11-15T03:52:34.832Z,100467.53
2022-11-15T03:55:22.037Z,100461.25
2022-11-15T03:58:07.858Z,100467.81
2022-11-15T04:00:53.526Z,100459.28
2022-11-15T04:03:39.527Z,100452.97
2022-11-15T04:06:25.081Z,100449.22
2022-11-15T04:09:10.614Z,100450.94
2022-11-15T04:11:56.102Z,100450.13
2022-11-15T04:15:01.111Z,100442.94
2022-11-15T04:17:48.488Z,100449.97
2022-11-15T04:20:52.637Z,100449.84
2022-11-15T04:23:57.198Z,100453.97
2022-11-15T04:26:43.131Z,100449.22
2022-11-15T04:29:37.963Z,100454.06
2022-11-15T04:32:23.831Z,100440.50
2022-11-15T04:35:10.291Z,100442.72
2022-11-15T04:37:57.149Z,100439.13
2022-11-15T04:40:42.609Z,100436.56
2022-11-15T04:43:28.219Z,100429.22
2022-11-15T04:46:13.396Z,100400.28
2022-11-15T04:48:59.461Z,100430.47
2022-11-15T04:51:45.743Z,100429.22
2022-11-15T04:54:31.130Z,100422.88
2022-11-15T04:57:17.011Z,100425.09
2022-11-15T05:00:07.785Z,100426.44
2022-11-15T05:03:11.924Z,100421.38
2022-11-15T05:05:58.621Z,100417.72
2022-11-15T05:08:43.898Z,100416.84
2022-11-15T05:11:29.138Z,100414.75
2022-11-15T05:14:15.363Z,100412.03
2022-11-15T05:17:01.389Z,100417.66
2022-11-15T05:19:46.596Z,100420.09
2022-11-15T05:22:31.934Z,100421.78
2022-11-15T05:25:17.398Z,100421.84
2022-11-15T05:28:02.940Z,100422.53
2022-11-15T05:30:48.753Z,100415.00
2022-11-15T05:33:36.341Z,100409.94
2022-11-15T05:36:40.577Z,100404.63
2022-11-15T05:39:27.097Z,100409.09
2022-11-15T05:42:16.925Z,100403.63
2022-11-15T05:45:05.948Z,100400.63
2022-11-15T05:47:52.640Z,100397.47
2022-11-15T05:50:42.448Z,100394.41
2022-11-15T05:53:28.143Z,100399.97
2022-11-15T05:56:13.813Z,100391.03
2022-11-15T05:59:00.282Z,100397.44
2022-11-15T06:01:47.024Z,100394.66
2022-11-15T06:04:32.527Z,100387.56
2022-11-15T06:07:18.520Z,100393.78
2022-11-15T06:10:04.570Z,100380.00
2022-11-15T06:12:58.252Z,100386.44
2022-11-15T06:15:43.565Z,100371.97
2022-11-15T06:18:29.145Z,100380.47
2022-11-15T06:21:14.740Z,100369.63
2022-11-15T06:24:00.000Z,100375.50
2022-11-15T06:26:45.250Z,100366.41
2022-11-15T06:29:30.440Z,100378.44
2022-11-15T06:32:16.187Z,100364.34
2022-11-15T06:35:01.529Z,100366.16
2022-11-15T06:37:47.313Z,100358.75
2022-11-15T06:40:38.570Z,100364.81
2022-11-15T06:43:24.478Z,100350.72
2022-11-15T06:46:10.586Z,100352.69
2022-11-15T06:48:56.124Z,100344.28
2022-11-15T06:51:41.623Z,100343.16
2022-11-15T06:54:27.368Z,100337.66
2022-11-15T06:57:12.984Z,100337.44
2022-11-15T06:59:58.260Z,100337.22
2022-11-15T07:02:43.867Z,100330.47
2022-11-15T07:05:29.748Z,100329.31
2022-11-15T07:08:15.456Z,100322.75
2022-11-15T07:11:03.687Z,100323.72
2022-11-15T07:13:49.390Z,100328.41
2022-11-15T07:16:34.854Z,100321.31
2022-11-15T07:19:20.334Z,100324.13
2022-11-15T07:22:06.289Z,100324.44
2022-11-15T07:24:52.023Z,100318.66
2022-11-15T07:27:38.076Z,100322.78
2022-11-15T07:30:24.155Z,100324.41
2022-11-15T07:33:09.733Z,100306.53
2022-11-15T07:35:59.319Z,100315.00
2022-11-15T07:38:44.945Z,100307.28
2022-11-15T07:41:31.081Z,100293.81
2022-11-15T07:44:16.688Z,100285.56
2022-11-15T07:47:02.056Z,100290.22
2022-11-15T07:49:48.128Z,100291.16
2022-11-15T07:52:33.444Z,100286.69
2022-11-15T07:55:19.115Z,100279.84
2022-11-15T07:58:07.110Z,100277.69
2022-11-15T08:00:52.526Z,100281.72
2022-11-15T08:03:38.501Z,100284.31
2022-11-15T08:06:24.083Z,100276.84
2022-11-15T08:09:09.457Z,100276.59
2022-11-15T08:11:55.076Z,100275.88
2022-11-15T08:14:40.778Z,100272.41
2022-11-15T08:17:27.343Z,100276.59
2022-11-15T08:20:12.899Z,100276.59
2022-11-15T08:23:00.126Z,100264.09
2022-11-15T08:25:45.816Z,100257.63
2022-11-15T08:28:32.944Z,100262.97
2022-11-15T08:31:19.449Z,100245.13
2022-11-15T08:34:05.669Z,100243.44
2022-11-15T08:36:51.313Z,100255.78
2022-11-15T08:39:36.593Z,100261.13
2022-11-15T08:42:22.258Z,100251.09
2022-11-15T08:45:09.500Z,100250.38
2022-11-15T08:47:55.238Z,100248.19
2022-11-15T08:50:40.950Z,100219.72
2022-11-15T08:53:26.834Z,100239.78
2022-11-15T08:56:14.176Z,100232.78
2022-11-15T08:59:01.006Z,100219.72
2022-11-15T09:01:46.809Z,100236.47
2022-11-15T09:04:33.087Z,100242.28
2022-11-15T09:07:19.258Z,100236.44
2022-11-15T09:10:05.449Z,100228.44
2022-11-15T09:12:50.652Z,100231.63
2022-11-15T09:15:36.448Z,100225.78
2022-11-15T09:18:23.779Z,100227.13
2022-11-15T09:21:10.338Z,100202.53
2022-11-15T09:23:56.262Z,100211.94
2022-11-15T09:26:42.163Z,100217.66
2022-11-15T09:29:29.848Z,100208.31
2022-11-15T09:32:15.178Z,100206.13
2022-11-15T09:35:00.393Z,100195.50
2022-11-15T09:37:46.715Z,100195.66
2022-11-15T09:40:33.720Z,100192.78
2022-11-15T09:43:27.866Z,100190.75
2022-11-15T09:46:19.688Z,100187.78
2022-11-15T09:49:22.278Z,100193.97
2022-11-15T09:52:12.198Z,100183.28
2022-11-15T09:54:56.599Z,100191.78
2022-11-15T09:58:01.978Z,100192.53
2022-11-15T10:00:46.481Z,100182.31
2022-11-15T10:03:37.536Z,100184.56
2022-11-15T10:06:06.514Z,100184.25
2022-11-15T10:08:56.601Z,100182.84
2022-11-15T10:11:37.251Z,100175.00
2022-11-15T10:14:19.758Z,100179.59
2022-11-15T10:17:15.405Z,100175.66
2022-11-15T10:19:42.392Z,100166.50
2022-11-15T10:22:30.385Z,100163.59
2022-11-15T10:25:14.577Z,100157.59
2022-11-15T10:27:44.358Z,100156.69
2022-11-15T10:30:14.705Z,100146.72
2022-11-15T10:32:44.098Z,100098.91
2022-11-15T10:35:21.689Z,100134.22
2022-11-15T10:37:48.946Z,100129.06
2022-11-15T10:40:17.823Z,100129.16
2022-11-15T10:42:44.921Z,100123.91
2022-11-15T10:45:27.795Z,100124.72
2022-11-15T10:47:55.069Z,100108.09
2022-11-15T10:50:31.194Z,100100.44
2022-11-15T10:52:59.445Z,100111.41
2022-11-15T10:55:30.098Z,100107.00
2022-11-15T10:58:07.663Z,100103.91
2022-11-15T11:00:39.634Z,100113.81
2022-11-15T11:03:29.270Z,100105.16
2022-11-15T11:06:06.613Z,100098.19
2022-11-15T11:08:35.136Z,100086.59
2022-11-15T11:11:04.208Z,100098.75
2022-11-15T11:13:39.403Z,100098.44
2022-11-15T11:16:15.148Z,100093.69
2022-11-15T11:19:09.947Z,100095.28
2022-11-15T11:21:50.795Z,100096.59
2022-11-15T11:24:27.222Z,100085.09
2022-11-15T11:27:39.135Z,100090.44
2022-11-15T11:30:08.937Z,100083.78
2022-11-15T11:32:35.838Z,100076.78
2022-11-15T11:35:23.811Z,100079.44
2022-11-15T11:38:10.874Z,100067.00
2022-11-15T11:41:21.453Z,100073.78
2022-11-15T11:44:03.650Z,100068.78
2022-11-15T11:46:43.532Z,100081.84
2022-11-15T11:49:16.600Z,100057.81
2022-11-15T11:52:00.000Z,100066.47
2022-11-15T11:54:38.155Z,100070.06
2022-11-15T11:57:13.845Z,100069.91
2022-11-15T11:59:58.273Z,100056.66
2022-11-15T12:02:42.729Z,100065.22
2022-11-15T12:05:46.402Z,100060.16
2022-11-15T12:08:25.666Z,100052.16
2022-11-15T12:11:18.780Z,100051.06
2022-11-15T12:13:49.949Z,100051.25
2022-11-15T12:16:32.178Z,100050.00
2022-11-15T12:19:04.766Z,100041.56
2022-11-15T12:21:49.730Z,100044.41
2022-11-15T12:24:25.847Z,100035.25
2022-11-15T12:26:58.988Z,100037.16
2022-11-15T12:29:40.202Z,100030.00
2022-11-15T12:32:39.108Z,100031.63
2022-11-15T12:35:24.186Z,100032.63
2022-11-15T12:37:56.624Z,100008.63
2022-11-15T12:40:38.507Z,100016.56
2022-11-15T12:43:14.273Z,100021.81
2022-11-15T12:45:46.404Z,100015.94
2022-11-15T12:48:19.477Z,100011.09
2022-11-15T12:50:55.402Z,100002.81
2022-11-15T12:53:28.774Z,100000.06
2022-11-15T12:56:14.143Z,100003.22
2022-11-15T12:58:49.686Z,100003.59
2022-11-15T13:01:42.418Z,100008.38
2022-11-15T13:04:30.267Z,99989.31
2022-11-15T13:07:02.005Z,99987.03
2022-11-15T13:09:34.922Z,99986.81
2022-11-15T13:12:04.897Z,99977.34
2022-11-15T13:14:52.341Z,99974.38
2022-11-15T13:17:31.408Z,99969.16
2022-11-15T13:20:03.182Z,99967.78
2022-11-15T13:22:53.394Z,99966.09
2022-11-15T13:25:35.681Z,99963.41
2022-11-15T13:28:17.809Z,99965.09
2022-11-15T13:30:47.708Z,99965.25
2022-11-15T13:33:24.929Z,99966.84
2022-11-15T13:35:55.745Z,99962.38
2022-11-15T13:38:25.672Z,99961.06
2022-11-15T13:40:52.532Z,99959.25
2022-11-15T13:43:22.527Z,99949.91
2022-11-15T13:46:18.477Z,99945.75
2022-11-15T13:48:48.129Z,99944.75
2022-11-15T13:51:18.353Z,99943.63
2022-11-15T13:53:52.472Z,99951.34
2022-11-15T13:56:20.947Z,99944.59
2022-11-15T13:58:48.467Z,99935.81
2022-11-15T14:01:20.778Z,99942.94
2022-11-15T14:04:00.584Z,99935.44
2022-11-15T14:06:30.891Z,99930.69
2022-11-15T14:09:10.056Z,99931.75
2022-11-15T14:11:37.118Z,99930.09
2022-11-15T14:14:10.138Z,99926.06
2022-11-15T14:16:45.773Z,99922.00
2022-11-15T14:19:34.735Z,99922.34
2022-11-15T14:22:22.162Z,99923.47
2022-11-15T14:25:07.598Z,99914.41
2022-11-15T14:27:34.949Z,99914.06
2022-11-15T14:30:02.027Z,99910.53
2022-11-15T14:32:43.919Z,99906.56
2022-11-15T14:35:16.771Z,99905.09
2022-11-15T14:37:43.980Z,99908.03
2022-11-15T14:40:15.634Z,99892.53
2022-11-15T14:42:43.545Z,99898.53
2022-11-15T14:45:19.101Z,99885.81
2022-11-15T14:47:46.487Z,99890.34
2022-11-15T14:50:23.039Z,99886.31
2022-11-15T14:52:50.323Z,99885.59
2022-11-15T14:55:26.580Z,99885.84
2022-11-15T14:57:56.247Z,99886.22
2022-11-15T15:00:23.512Z,99888.09
2022-11-15T15:02:53.715Z,99879.63
2022-11-15T15:05:27.839Z,99886.75
2022-11-15T15:07:54.935Z,99884.31
2022-11-15T15:10:39.444Z,99882.50
2022-11-15T15:13:14.851Z,99879.19
2022-11-15T15:15:41.809Z,99874.78
2022-11-15T15:18:09.704Z,99878.28
2022-11-15T15:20:39.407Z,99871.47
2022-11-15T15:23:06.551Z,99861.44
2022-11-15T15:25:35.992Z,99853.41
2022-11-15T15:28:03.299Z,99855.31
2022-11-15T15:30:31.505Z,99856.72
2022-11-15T15:32:58.842Z,99851.50
2022-11-15T15:35:30.498Z,99852.66
2022-11-15T15:37:57.735Z,99837.75
2022-11-15T15:40:26.449Z,99842.78
2022-11-15T15:42:53.379Z,99831.19
2022-11-15T15:45:20.493Z,99836.97
2022-11-15T15:47:48.065Z,99828.41
2022-11-15T15:50:29.955Z,99829.53
2022-11-15T15:52:59.273Z,99818.91
2022-11-15T15:55:27.055Z,99813.91
2022-11-15T15:57:54.275Z,99814.41
2022-11-15T16:00:24.191Z,99811.88
2022-11-15T16:02:51.678Z,99816.41
2022-11-15T16:05:19.221Z,99810.19
2022-11-15T16:07:47.556Z,99806.72
2022-11-15T16:10:26.394Z,99796.44
2022-11-15T16:12:54.398Z,99809.09
2022-11-15T16:15:23.222Z,99803.09
2022-11-15T16:17:55.482Z,99800.72
2022-11-15T16:20:33.114Z,99802.94
2022-11-15T16:23:05.805Z,99804.63
2022-11-15T16:25:40.985Z,99797.66
2022-11-15T16:28:21.719Z,99789.59
2022-11-15T16:30:53.844Z,99787.03
2022-11-15T16:33:23.790Z,99784.28
2022-11-15T16:35:50.855Z,99785.78
2022-11-15T16:38:18.750Z,99785.06
2022-11-15T16:40:46.180Z,99784.84
2022-11-15T16:43:13.063Z,99776.22
2022-11-15T16:45:40.138Z,99776.97
2022-11-15T16:48:07.172Z,99784.03
2022-11-15T16:50:41.633Z,99777.97
2022-11-15T16:53:08.602Z,99765.94
2022-11-15T16:55:35.511Z,99772.41
2022-11-15T16:58:02.540Z,99769.16
2022-11-15T17:00:29.640Z,99761.28
2022-11-15T17:02:57.914Z,99760.28
2022-11-15T17:05:27.439Z,99766.16
2022-11-15T17:07:54.435Z,99759.94
2022-11-15T17:10:22.953Z,99764.88
2022-11-15T17:12:50.949Z,99770.91
2022-11-15T17:15:18.349Z,99764.78
2022-11-15T17:17:51.161Z,99762.47
2022-11-15T17:20:19.904Z,99768.00
2022-11-15T17:22:47.468Z,99747.00
2022-11-15T17:25:14.851Z,99768.56
2022-11-15T17:27:41.884Z,99765.38
2022-11-15T17:30:10.491Z,99758.63
2022-11-15T17:32:38.110Z,99756.22
2022-11-15T17:35:14.906Z,99752.16
2022-11-15T17:37:42.417Z,99758.78
2022-11-15T17:40:09.900Z,99761.88
2022-11-15T17:42:37.024Z,99760.53
2022-11-15T17:45:09.556Z,99765.28
2022-11-15T17:47:37.510Z,99758.13
2022-11-15T17:50:04.791Z,99755.06
2022-11-15T17:52:31.806Z,99741.22
2022-11-15T17:54:58.868Z,99749.66
2022-11-15T17:57:25.784Z,99747.09
2022-11-15T17:59:52.707Z,99744.34
2022-11-15T18:02:19.706Z,99743.16
2022-11-15T18:04:46.583Z,99732.69
2022-11-15T18:07:14.354Z,99737.84
2022-11-15T18:09:44.199Z,99736.78
2022-11-15T18:12:12.200Z,99740.94
2022-11-15T18:14:39.513Z,99735.03
2022-11-15T18:17:06.600Z,99732.31
2022-11-15T18:19:33.913Z,99733.81
2022-11-15T18:22:01.854Z,99735.28
2022-11-15T18:24:38.531Z,99730.72
2022-11-15T18:27:06.609Z,99726.59
2022-11-15T18:29:37.696Z,99729.00
2022-11-15T18:32:11.728Z,99726.59
2022-11-15T18:34:39.112Z,99724.75
2022-11-15T18:37:06.325Z,99726.25
2022-11-15T18:39:33.364Z,99719.59
2022-11-15T18:42:00.492Z,99699.34
2022-11-15T18:44:30.208Z,99719.19
2022-11-15T18:46:57.593Z,99720.75
2022-11-15T18:49:24.503Z,99722.56
2022-11-15T18:51:51.527Z,99722.41
2022-11-15T18:54:18.445Z,99722.22
2022-11-15T18:56:45.993Z,99717.94
2022-11-15T18:59:16.287Z,99721.16
2022-11-15T19:01:48.006Z,99711.38
2022-11-15T19:04:18.670Z,99713.47
2022-11-15T19:06:48.818Z,99709.94
2022-11-15T19:09:17.831Z,99709.53
2022-11-15T19:11:46.588Z,99708.44
2022-11-15T19:14:16.897Z,99694.06
2022-11-15T19:16:52.409Z,99703.31
2022-11-15T19:19:22.124Z,99696.00
2022-11-15T19:21:49.404Z,99692.03
2022-11-15T19:24:16.468Z,99698.03
2022-11-15T19:26:47.136Z,99696.13
2022-11-15T19:29:14.399Z,99695.88
2022-11-15T19:31:42.338Z,99692.38
2022-11-15T19:34:10.569Z,99692.00
2022-11-15T19:36:40.772Z,99696.34
2022-11-15T19:39:11.964Z,99689.28
2022-11-15T19:41:44.065Z,99693.69
2022-11-15T19:44:12.624Z,99690.16
2022-11-15T19:46:40.406Z,99688.56
2022-11-15T19:49:10.506Z,99684.75
2022-11-15T19:51:39.087Z,99679.44
2022-11-15T19:54:08.884Z,99681.81
2022-11-15T19:56:37.233Z,99676.13
2022-11-15T19:59:05.286Z,99674.13
2022-11-15T20:01:36.396Z,99656.38
2022-11-15T20:04:04.153Z,99651.72
2022-11-15T20:06:34.071Z,99675.44
2022-11-15T20:09:01.387Z,99677.78
2022-11-15T20:11:28.541Z,99654.22
2022-11-15T20:14:01.931Z,99669.47
2022-11-15T20:16:29.568Z,99647.75
2022-11-15T20:18:56.633Z,99665.66
2022-11-15T20:21:23.922Z,99668.56
2022-11-15T20:23:51.911Z,99672.81
2022-11-15T20:26:20.352Z,99670.53
2022-11-15T20:28:48.309Z,99666.47
2022-11-15T20:31:16.439Z,99674.28
2022-11-15T20:33:43.630Z,99672.31
2022-11-15T20:36:13.123Z,99668.63
2022-11-15T20:38:40.100Z,99668.78
2022-11-15T20:41:07.814Z,99663.81
2022-11-15T20:43:35.059Z,99664.25
2022-11-15T20:46:02.074Z,99667.88
2022-11-15T20:48:29.196Z,99664.16
2022-11-15T20:51:12.497Z,99663.47
2022-11-15T20:53:43.793Z,99661.66
2022-11-15T20:56:16.860Z,99657.97
2022-11-15T20:58:45.904Z,99652.19
2022-11-15T21:01:15.723Z,99658.63
2022-11-15T21:03:42.843Z,99648.91
2022-11-15T21:06:11.747Z,99625.75
2022-11-15T21:08:57.543Z,99654.38
2022-11-15T21:11:43.946Z,99657.59
2022-11-15T21:14:11.171Z,99653.94
2022-11-15T21:16:39.665Z,99651.53
2022-11-15T21:19:07.033Z,99640.66
2022-11-15T21:21:35.789Z,99656.16
2022-11-15T21:24:07.764Z,99657.25
2022-11-15T21:26:36.009Z,99648.34
2022-11-15T21:29:03.754Z,99635.41
2022-11-15T21:31:32.069Z,99654.34
2022-11-15T21:34:02.435Z,99654.50
2022-11-15T21:36:29.826Z,99648.72
2022-11-15T21:38:56.804Z,99652.63
2022-11-15T21:41:23.770Z,99656.19
2022-11-15T21:43:50.834Z,99652.44
2022-11-15T21:46:17.703Z,99653.69
2022-11-15T21:48:44.634Z,99649.53
2022-11-15T21:51:11.941Z,99657.00
2022-11-15T21:53:39.338Z,99652.66
2022-11-15T21:56:07.086Z,99650.19
2022-11-15T21:58:34.787Z,99649.69
2022-11-15T22:01:20.501Z,99647.28
2022-11-15T22:03:47.771Z,99639.53
2022-11-15T22:06:17.984Z,99649.88
2022-11-15T22:08:46.406Z,99652.28
2022-11-15T22:11:14.735Z,99637.72
2022-11-15T22:13:42.174Z,99648.34
2022-11-15T22:16:10.191Z,99644.56
2022-11-15T22:18:38.060Z,99651.00
2022-11-15T22:21:07.748Z,99652.31
2022-11-15T22:23:35.311Z,99654.00
2022-11-15T22:26:02.897Z,99649.88
2022-11-15T22:28:31.086Z,99647.28
2022-11-15T22:31:00.172Z,99648.19
2022-11-15T22:33:29.678Z,99640.66
2022-11-15T22:35:56.929Z,99629.31
2022-11-15T22:38:24.339Z,99645.41
2022-11-15T22:40:51.332Z,99642.09
2022-11-15T22:43:20.438Z,99647.06
2022-11-15T22:45:57.537Z,99649.91
2022-11-15T22:48:28.825Z,99644.78
2022-11-15T22:50:56.271Z,99642.19
2022-11-15T22:53:23.996Z,99652.16
2022-11-15T22:55:56.307Z,99642.44
2022-11-15T22:58:26.983Z,99642.25
2022-11-15T23:00:56.821Z,99639.78
2022-11-15T23:03:25.354Z,99640.94
2022-11-15T23:05:52.888Z,99640.19
2022-11-15T23:08:20.264Z,99636.56
2022-11-15T23:11:05.877Z,99633.97
2022-11-15T23:13:33.837Z,99640.25
2022-11-15T23:16:25.933Z,99631.81
2022-11-15T23:19:13.359Z,99627.31
2022-11-15T23:22:01.192Z,99631.56
2022-11-15T23:24:28.855Z,99632.97
2022-11-15T23:27:01.712Z,99633.63
2022-11-15T23:29:29.792Z,99638.44
2022-11-15T23:32:16.019Z,99631.34
2022-11-15T23:34:45.794Z,99630.66
2022-11-15T23:37:15.338Z,99637.88
2022-11-15T23:39:42.497Z,99627.03
2022-11-15T23:42:19.775Z,99637.81
2022-11-15T23:44:50.027Z,99632.66
2022-11-15T23:47:18.763Z,99629.19
2022-11-15T23:49:47.288Z,99636.03
2022-11-15T23:52:15.724Z,99640.38
2022-11-15T23:54:43.031Z,99639.06
2022-11-15T23:57:12.129Z,99640.78
2022-11-15T23:59:40.254Z,99621.16
